createdAt,value
2023-04-24T00:01:45.861Z,42.30
2023-04-24T00:04:17.590Z,41.42
2023-04-24T00:06:45.554Z,40.31
2023-04-24T00:09:13.589Z,41.38
2023-04-24T00:11:41.472Z,40.71
2023-04-24T00:14:09.319Z,41.44
2023-04-24T00:16:37.244Z,41.43
2023-04-24T00:19:06.966Z,42.64
2023-04-24T00:21:34.841Z,41.62
2023-04-24T00:24:02.681Z,42.40
2023-04-24T00:26:30.475Z,42.35
2023-04-24T00:28:58.367Z,42.10
2023-04-24T00:31:28.314Z,41.04
2023-04-24T00:33:56.220Z,41.14
2023-04-24T00:36:26.070Z,41.17
2023-04-24T00:38:53.935Z,41.01
2023-04-24T00:41:22.071Z,41.80
2023-04-24T00:43:50.023Z,41.93
2023-04-24T00:46:18.750Z,41.71
2023-04-24T00:48:46.706Z,41.42
2023-04-24T00:51:15.072Z,42.80
2023-04-24T00:53:44.310Z,43.34
2023-04-24T00:56:12.706Z,41.53
2023-04-24T00:58:40.892Z,40.31
2023-04-24T01:01:09.163Z,39.58
2023-04-24T01:03:38.534Z,39.63
2023-04-24T01:06:07.818Z,40.95
2023-04-24T01:08:38.326Z,40.12
2023-04-24T01:11:08.105Z,39.55
2023-04-24T01:13:36.899Z,40.88
2023-04-24T01:16:05.193Z,38.31
2023-04-24T01:18:33.278Z,36.59
2023-04-24T01:21:05.928Z,36.33
2023-04-24T01:23:35.858Z,35.65
2023-04-24T01:26:04.316Z,35.31
2023-04-24T01:28:32.711Z,33.77
2023-04-24T01:31:01.618Z,34.58
2023-04-24T01:33:29.689Z,34.28
2023-04-24T01:35:58.454Z,34.39
2023-04-24T01:38:26.421Z,34.57
2023-04-24T01:40:55.934Z,33.47
2023-04-24T01:43:24.123Z,34.99
2023-04-24T01:45:52.099Z,33.75
2023-04-24T01:48:20.242Z,33.76
2023-04-24T01:50:48.288Z,33.75
2023-04-24T01:53:16.506Z,33.79
2023-04-24T01:55:44.564Z,33.69
2023-04-24T01:58:16.488Z,34.24
2023-04-24T02:00:44.474Z,34.42
2023-04-24T02:03:12.524Z,33.08
2023-04-24T02:05:40.443Z,34.49
2023-04-24T02:08:08.338Z,35.25
2023-04-24T02:10:39.124Z,36.09
2023-04-24T02:13:07.374Z,38.23
2023-04-24T02:15:37.009Z,38.19
2023-04-24T02:18:05.367Z,38.26
2023-04-24T02:20:35.028Z,39.44
2023-04-24T02:23:03.094Z,37.76
2023-04-24T02:25:31.022Z,37.86
2023-04-24T02:27:59.226Z,37.53
2023-04-24T02:30:28.011Z,36.96
2023-04-24T02:32:57.309Z,36.45
2023-04-24T02:35:25.621Z,36.58
2023-04-24T02:37:53.576Z,36.46
2023-04-24T02:40:21.623Z,37.72
2023-04-24T02:42:49.462Z,37.31
2023-04-24T02:45:18.921Z,36.97
2023-04-24T02:47:47.153Z,37.03
2023-04-24T02:50:16.481Z,36.85
2023-04-24T02:52:44.339Z,37.54
2023-04-24T02:55:12.560Z,38.01
2023-04-24T02:57:40.393Z,38.33
2023-04-24T03:00:10.157Z,38.61
2023-04-24T03:02:38.287Z,39.09
2023-04-24T03:05:07.080Z,38.19
2023-04-24T03:07:36.596Z,39.26
2023-04-24T03:10:04.763Z,37.13
2023-04-24T03:12:32.703Z,36.18
2023-04-24T03:15:00.679Z,36.32
2023-04-24T03:17:28.545Z,37.40
2023-04-24T03:19:56.460Z,36.08
2023-04-24T03:22:24.451Z,38.42
2023-04-24T03:24:53.780Z,36.64
2023-04-24T03:27:21.851Z,36.57
2023-04-24T03:29:57.050Z,36.44
2023-04-24T03:32:47.794Z,36.18
2023-04-24T03:35:20.553Z,36.70
2023-04-24T03:37:48.588Z,36.41
2023-04-24T03:40:46.668Z,36.04
2023-04-24T03:43:37.739Z,36.14
2023-04-24T03:46:08.023Z,36.03
2023-04-24T03:48:40.229Z,36.56
2023-04-24T03:51:09.919Z,37.45
2023-04-24T03:53:40.522Z,36.65
2023-04-24T03:56:10.535Z,38.05
2023-04-24T03:58:39.202Z,37.89
2023-04-24T04:01:07.477Z,37.00
2023-04-24T04:03:50.891Z,37.91
2023-04-24T04:06:22.489Z,38.05
2023-04-24T04:08:51.951Z,37.42
2023-04-24T04:11:21.236Z,38.46
2023-04-24T04:13:49.133Z,37.99
2023-04-24T04:16:20.147Z,38.18
2023-04-24T04:18:50.542Z,39.29
2023-04-24T04:21:18.967Z,39.40
2023-04-24T04:23:47.492Z,38.79
2023-04-24T04:26:22.131Z,38.38
2023-04-24T04:29:04.586Z,38.47
2023-04-24T04:31:33.901Z,37.39
2023-04-24T04:34:06.872Z,37.11
2023-04-24T04:36:37.812Z,38.16
2023-04-24T04:39:22.303Z,37.15
2023-04-24T04:42:01.489Z,37.38
2023-04-24T04:44:37.383Z,38.08
2023-04-24T04:47:07.595Z,38.63
2023-04-24T04:49:37.958Z,36.51
2023-04-24T04:52:08.104Z,37.28
2023-04-24T04:54:35.997Z,38.45
2023-04-24T04:57:05.511Z,37.21
2023-04-24T04:59:38.278Z,36.60
2023-04-24T05:02:11.606Z,36.23
2023-04-24T05:04:40.056Z,36.41
2023-04-24T05:07:08.464Z,36.66
2023-04-24T05:09:40.941Z,37.17
2023-04-24T05:12:10.447Z,38.91
2023-04-24T05:14:46.093Z,38.18
2023-04-24T05:17:14.805Z,37.03
2023-04-24T05:19:43.042Z,35.96
2023-04-24T05:22:12.492Z,37.74
2023-04-24T05:24:49.083Z,36.92
2023-04-24T05:27:44.415Z,37.76
2023-04-24T05:30:17.145Z,36.39
2023-04-24T05:32:45.751Z,38.13
2023-04-24T05:35:15.206Z,36.74
2023-04-24T05:37:43.506Z,35.42
2023-04-24T05:40:14.262Z,36.11
2023-04-24T05:42:42.472Z,37.24
2023-04-24T05:45:17.393Z,35.58
2023-04-24T05:47:45.995Z,36.34
2023-04-24T05:50:14.783Z,36.15
2023-04-24T05:52:42.694Z,37.38
2023-04-24T05:55:23.572Z,35.81
2023-04-24T05:57:51.877Z,35.31
2023-04-24T06:00:21.616Z,36.69
2023-04-24T06:03:01.198Z,36.24
2023-04-24T06:05:29.718Z,35.25
2023-04-24T06:07:57.882Z,35.80
2023-04-24T06:10:29.398Z,36.97
2023-04-24T06:13:01.429Z,37.21
2023-04-24T06:15:33.257Z,36.61
2023-04-24T06:18:06.715Z,34.49
2023-04-24T06:20:38.346Z,35.33
2023-04-24T06:23:08.600Z,36.02
2023-04-24T06:25:37.483Z,35.82
2023-04-24T06:28:05.926Z,34.98
2023-04-24T06:30:35.260Z,35.31
2023-04-24T06:33:12.974Z,35.32
2023-04-24T06:35:47.876Z,34.85
2023-04-24T06:38:16.981Z,34.66
2023-04-24T06:40:45.140Z,34.03
2023-04-24T06:43:13.049Z,33.42
2023-04-24T06:45:44.328Z,34.43
2023-04-24T06:48:12.488Z,34.97
2023-04-24T06:50:40.296Z,34.83
2023-04-24T06:53:08.199Z,34.46
2023-04-24T06:55:37.554Z,34.61
2023-04-24T06:58:05.744Z,34.64
2023-04-24T07:00:33.689Z,33.47
2023-04-24T07:03:03.684Z,32.68
2023-04-24T07:05:31.878Z,33.90
2023-04-24T07:08:00.337Z,33.35
2023-04-24T07:10:29.668Z,32.87
2023-04-24T07:12:58.073Z,33.76
2023-04-24T07:15:26.237Z,34.59
2023-04-24T07:17:54.254Z,33.72
2023-04-24T07:20:23.895Z,34.75
2023-04-24T07:22:52.732Z,33.88
2023-04-24T07:25:20.727Z,33.05
2023-04-24T07:27:49.974Z,32.83
2023-04-24T07:30:17.974Z,32.48
2023-04-24T07:32:45.899Z,32.08
2023-04-24T07:35:13.874Z,32.99
2023-04-24T07:37:46.784Z,33.73
2023-04-24T07:40:15.111Z,32.63
2023-04-24T07:42:42.976Z,32.44
2023-04-24T07:45:11.091Z,32.54
2023-04-24T07:47:40.543Z,31.32
2023-04-24T07:50:08.817Z,30.47
2023-04-24T07:52:36.902Z,29.75
2023-04-24T07:55:07.079Z,32.14
2023-04-24T07:57:35.051Z,30.92
2023-04-24T08:00:04.977Z,32.45
2023-04-24T08:02:39.687Z,31.65
2023-04-24T08:05:08.770Z,30.60
2023-04-24T08:07:37.350Z,31.42
2023-04-24T08:10:08.156Z,32.05
2023-04-24T08:12:36.045Z,31.60
2023-04-24T08:15:04.137Z,31.55
2023-04-24T08:17:32.202Z,32.29
2023-04-24T08:20:02.383Z,32.96
2023-04-24T08:22:30.773Z,31.80
2023-04-24T08:24:59.357Z,33.05
2023-04-24T08:27:29.819Z,32.20
2023-04-24T08:29:59.714Z,31.75
2023-04-24T08:32:28.906Z,31.86
2023-04-24T08:34:57.318Z,32.55
2023-04-24T08:37:25.284Z,31.28
2023-04-24T08:39:53.335Z,32.75
2023-04-24T08:42:22.268Z,31.75
2023-04-24T08:44:52.344Z,29.70
2023-04-24T08:47:22.772Z,30.03
2023-04-24T08:49:52.349Z,30.67
2023-04-24T08:52:21.152Z,31.49
2023-04-24T08:54:49.624Z,32.10
2023-04-24T08:57:18.431Z,30.67
2023-04-24T08:59:47.573Z,31.90
2023-04-24T09:02:18.169Z,30.79
2023-04-24T09:04:48.147Z,29.61
2023-04-24T09:07:18.976Z,30.94
2023-04-24T09:09:47.394Z,29.34
2023-04-24T09:12:15.701Z,29.51
2023-04-24T09:14:46.179Z,28.22
2023-04-24T09:17:14.921Z,29.13
2023-04-24T09:19:44.277Z,30.86
2023-04-24T09:22:13.084Z,30.28
2023-04-24T09:24:40.947Z,30.02
2023-04-24T09:27:11.291Z,30.85
2023-04-24T09:29:39.262Z,30.35
2023-04-24T09:32:20.850Z,31.01
2023-04-24T09:34:51.541Z,31.86
2023-04-24T09:37:31.144Z,31.14
2023-04-24T09:40:13.786Z,31.50
2023-04-24T09:42:42.214Z,30.10
2023-04-24T09:45:17.635Z,30.08
2023-04-24T09:47:45.699Z,30.00
2023-04-24T09:50:18.272Z,31.21
2023-04-24T09:52:57.888Z,30.22
2023-04-24T09:55:26.722Z,31.43
2023-04-24T09:57:55.743Z,29.37
2023-04-24T10:00:28.604Z,28.83
2023-04-24T10:03:00.297Z,29.94
2023-04-24T10:05:34.641Z,32.49
2023-04-24T10:08:05.010Z,32.52
2023-04-24T10:10:33.408Z,31.80
2023-04-24T10:13:02.081Z,30.43
2023-04-24T10:15:30.253Z,30.54
2023-04-24T10:18:00.657Z,30.39
2023-04-24T10:20:31.778Z,31.35
2023-04-24T10:23:02.738Z,31.07
2023-04-24T10:25:32.318Z,31.10
2023-04-24T10:28:01.598Z,31.54
2023-04-24T10:30:30.883Z,29.73
2023-04-24T10:32:58.948Z,29.83
2023-04-24T10:35:27.820Z,32.08
2023-04-24T10:38:01.890Z,34.62
2023-04-24T10:40:34.260Z,31.50
2023-04-24T10:43:07.096Z,31.98
2023-04-24T10:45:35.061Z,31.49
2023-04-24T10:48:06.401Z,32.51
2023-04-24T10:50:45.795Z,31.92
2023-04-24T10:53:19.120Z,32.68
2023-04-24T10:55:50.612Z,32.32
2023-04-24T10:58:23.520Z,32.52
2023-04-24T11:00:59.098Z,32.96
2023-04-24T11:03:29.882Z,31.96
2023-04-24T11:06:00.122Z,30.62
2023-04-24T11:08:32.165Z,29.81
2023-04-24T11:11:03.780Z,30.31
2023-04-24T11:14:07.502Z,31.11
2023-04-24T11:16:46.726Z,31.93
2023-04-24T11:19:25.769Z,31.60
2023-04-24T11:22:01.414Z,31.96
2023-04-24T11:24:34.329Z,32.35
2023-04-24T11:27:09.435Z,31.64
2023-04-24T11:29:42.015Z,31.62
2023-04-24T11:32:29.688Z,31.66
2023-04-24T11:34:59.364Z,31.23
2023-04-24T11:37:29.770Z,30.23
2023-04-24T11:39:59.648Z,28.79
2023-04-24T11:42:30.383Z,28.43
2023-04-24T11:44:58.676Z,29.59
2023-04-24T11:47:31.344Z,32.02
2023-04-24T11:50:01.971Z,31.84
2023-04-24T11:52:31.089Z,30.65
2023-04-24T11:54:59.467Z,31.18
2023-04-24T11:57:34.468Z,31.79
2023-04-24T12:00:04.636Z,31.49
2023-04-24T12:02:40.428Z,30.43
2023-04-24T12:05:13.099Z,30.15
2023-04-24T12:07:44.265Z,31.50
2023-04-24T12:10:12.853Z,31.46
2023-04-24T12:12:42.104Z,30.71
2023-04-24T12:15:11.141Z,31.83
2023-04-24T12:17:43.957Z,32.40
2023-04-24T12:20:13.387Z,33.31
2023-04-24T12:22:48.963Z,32.07
2023-04-24T12:25:20.330Z,31.92
2023-04-24T12:27:55.660Z,32.33
2023-04-24T12:30:29.140Z,31.90
2023-04-24T12:32:59.741Z,31.80
2023-04-24T12:35:29.862Z,31.58
2023-04-24T12:37:57.709Z,32.54
2023-04-24T12:40:27.588Z,30.76
2023-04-24T12:42:58.059Z,30.74
2023-04-24T12:45:26.468Z,30.83
2023-04-24T12:47:54.364Z,29.66
2023-04-24T12:50:22.186Z,31.61
2023-04-24T12:52:50.092Z,31.13
2023-04-24T12:55:18.036Z,31.99
2023-04-24T12:57:46.062Z,31.14
2023-04-24T13:00:18.623Z,32.17
2023-04-24T13:02:48.068Z,33.20
2023-04-24T13:05:16.600Z,34.25
2023-04-24T13:07:44.858Z,35.07
2023-04-24T13:10:14.218Z,35.95
2023-04-24T13:12:42.378Z,35.27
2023-04-24T13:15:11.013Z,37.62
2023-04-24T13:17:40.621Z,39.25
2023-04-24T13:20:09.364Z,38.12
2023-04-24T13:22:38.094Z,38.45
2023-04-24T13:25:08.257Z,37.82
2023-04-24T13:27:36.242Z,37.26
2023-04-24T13:30:05.231Z,36.25
2023-04-24T13:32:34.434Z,35.64
2023-04-24T13:35:03.715Z,36.14
2023-04-24T13:37:31.746Z,35.87
2023-04-24T13:39:59.847Z,35.72
2023-04-24T13:42:27.821Z,36.93
2023-04-24T13:44:56.307Z,36.74
2023-04-24T13:47:24.153Z,37.02
2023-04-24T13:49:51.952Z,38.42
2023-04-24T13:52:21.197Z,38.65
2023-04-24T13:54:49.091Z,38.96
2023-04-24T13:57:17.959Z,38.59
2023-04-24T13:59:46.514Z,40.43
2023-04-24T14:02:14.500Z,38.87
2023-04-24T14:04:42.843Z,40.15
2023-04-24T14:07:10.773Z,39.10
2023-04-24T14:09:40.148Z,38.14
2023-04-24T14:12:08.863Z,38.50
2023-04-24T14:14:41.104Z,40.11
2023-04-24T14:17:09.085Z,42.66
2023-04-24T14:19:37.135Z,42.54
2023-04-24T14:22:05.163Z,43.09
2023-04-24T14:24:33.134Z,41.76
2023-04-24T14:27:02.611Z,41.63
2023-04-24T14:29:30.662Z,42.08
2023-04-24T14:31:58.683Z,47.05
2023-04-24T14:34:26.769Z,44.09
2023-04-24T14:36:54.889Z,42.43
2023-04-24T14:39:22.908Z,43.59
2023-04-24T14:41:50.754Z,44.97
2023-04-24T14:44:20.033Z,42.04
2023-04-24T14:46:48.053Z,43.55
2023-04-24T14:49:15.950Z,42.81
2023-04-24T14:51:44.524Z,40.73
2023-04-24T14:54:12.486Z,42.65
2023-04-24T14:56:41.834Z,41.94
2023-04-24T14:59:09.889Z,40.48
2023-04-24T15:01:39.253Z,40.64
2023-04-24T15:04:07.393Z,38.48
2023-04-24T15:06:35.641Z,39.87
2023-04-24T15:09:03.507Z,39.24
2023-04-24T15:11:31.392Z,41.24
2023-04-24T15:13:59.392Z,41.64
2023-04-24T15:16:27.773Z,39.76
2023-04-24T15:19:00.293Z,42.92
2023-04-24T15:21:28.271Z,41.46
2023-04-24T15:23:56.344Z,41.37
2023-04-24T15:26:25.071Z,40.85
2023-04-24T15:28:53.212Z,40.32
2023-04-24T15:31:21.391Z,39.65
2023-04-24T15:33:50.555Z,39.98
2023-04-24T15:36:23.721Z,41.21
2023-04-24T15:38:51.903Z,40.52
2023-04-24T15:41:20.163Z,39.08
2023-04-24T15:43:48.258Z,38.56
2023-04-24T15:46:16.690Z,40.27
2023-04-24T15:48:44.980Z,39.88
2023-04-24T15:51:13.247Z,39.50
2023-04-24T15:53:42.625Z,39.11
2023-04-24T15:56:11.412Z,40.08
2023-04-24T15:58:39.614Z,42.52
2023-04-24T16:01:07.912Z,40.76
2023-04-24T16:03:36.362Z,40.82
2023-04-24T16:06:04.364Z,39.88
2023-04-24T16:08:32.408Z,38.85
2023-04-24T16:11:04.242Z,39.36
2023-04-24T16:13:34.252Z,38.53
2023-04-24T16:16:04.473Z,40.96
2023-04-24T16:18:32.532Z,40.64
2023-04-24T16:21:11.653Z,39.50
2023-04-24T16:23:40.292Z,38.37
2023-04-24T16:26:09.713Z,38.57
2023-04-24T16:28:37.688Z,40.09
2023-04-24T16:31:06.048Z,38.63
2023-04-24T16:33:34.025Z,40.29
2023-04-24T16:36:01.881Z,40.78
2023-04-24T16:38:29.844Z,39.69
2023-04-24T16:40:57.946Z,41.15
2023-04-24T16:43:27.373Z,41.82
2023-04-24T16:45:55.562Z,41.22
2023-04-24T16:48:23.679Z,41.59
2023-04-24T16:50:51.756Z,41.40
2023-04-24T16:53:19.896Z,41.98
2023-04-24T16:55:51.115Z,42.09
2023-04-24T16:58:19.836Z,41.57
2023-04-24T17:00:50.765Z,40.47
2023-04-24T17:03:19.232Z,40.20
2023-04-24T17:05:47.573Z,39.23
2023-04-24T17:08:15.843Z,39.47
2023-04-24T17:10:44.288Z,38.69
2023-04-24T17:13:14.832Z,39.16
2023-04-24T17:15:43.743Z,39.83
2023-04-24T17:18:13.242Z,39.64
2023-04-24T17:20:41.686Z,39.32
2023-04-24T17:23:11.944Z,39.44
2023-04-24T17:25:40.045Z,40.39
2023-04-24T17:28:17.663Z,40.59
2023-04-24T17:30:45.736Z,39.90
2023-04-24T17:33:15.269Z,39.90
2023-04-24T17:35:43.186Z,39.97
2023-04-24T17:38:11.107Z,39.68
2023-04-24T17:40:40.382Z,41.38
2023-04-24T17:43:08.798Z,41.62
2023-04-24T17:45:37.507Z,39.86
2023-04-24T17:48:05.644Z,39.13
2023-04-24T17:50:35.765Z,41.78
2023-04-24T17:53:03.794Z,39.13
2023-04-24T17:55:32.174Z,39.17
2023-04-24T17:58:01.793Z,39.98
2023-04-24T18:00:30.085Z,39.74
2023-04-24T18:03:01.158Z,39.85
2023-04-24T18:05:29.879Z,38.91
2023-04-24T18:08:00.050Z,40.32
2023-04-24T18:10:29.819Z,40.76
2023-04-24T18:12:58.093Z,41.16
2023-04-24T18:15:26.764Z,40.06
2023-04-24T18:17:54.747Z,39.70
2023-04-24T18:20:22.799Z,39.21
2023-04-24T18:22:50.919Z,39.94
2023-04-24T18:25:26.572Z,40.41
2023-04-24T18:27:56.008Z,40.31
2023-04-24T18:30:25.409Z,41.39
2023-04-24T18:32:54.810Z,40.12
2023-04-24T18:35:23.873Z,40.26
2023-04-24T18:37:52.055Z,40.40
2023-04-24T18:40:22.171Z,40.96
2023-04-24T18:42:50.456Z,41.39
2023-04-24T18:45:18.466Z,41.35
2023-04-24T18:47:46.410Z,41.12
2023-04-24T18:50:14.679Z,40.50
2023-04-24T18:52:42.731Z,39.95
2023-04-24T18:55:11.235Z,40.34
2023-04-24T18:57:40.725Z,41.36
2023-04-24T19:00:10.158Z,40.12
2023-04-24T19:02:38.196Z,40.01
2023-04-24T19:05:07.456Z,38.65
2023-04-24T19:07:35.574Z,39.27
2023-04-24T19:10:07.161Z,39.55
2023-04-24T19:12:35.543Z,39.16
2023-04-24T19:15:05.704Z,39.54
2023-04-24T19:17:33.804Z,39.29
2023-04-24T19:20:01.882Z,37.71
2023-04-24T19:22:30.322Z,38.36
2023-04-24T19:24:59.265Z,39.06
2023-04-24T19:27:27.393Z,40.13
2023-04-24T19:29:55.375Z,39.71
2023-04-24T19:32:25.284Z,39.36
2023-04-24T19:34:53.270Z,38.90
2023-04-24T19:37:21.417Z,39.38
2023-04-24T19:39:49.485Z,39.47
2023-04-24T19:42:21.163Z,39.18
2023-04-24T19:44:53.950Z,39.49
2023-04-24T19:47:22.078Z,40.14
2023-04-24T19:49:51.523Z,40.18
2023-04-24T19:52:19.621Z,39.88
2023-04-24T19:54:47.593Z,40.42
2023-04-24T19:57:15.645Z,40.07
2023-04-24T19:59:43.840Z,41.34
2023-04-24T20:02:13.604Z,40.44
2023-04-24T20:04:44.740Z,39.41
2023-04-24T20:07:14.443Z,40.67
2023-04-24T20:09:42.666Z,40.64
2023-04-24T20:12:11.897Z,40.91
2023-04-24T20:14:40.569Z,39.77
2023-04-24T20:17:08.866Z,40.15
2023-04-24T20:19:37.066Z,40.85
2023-04-24T20:22:05.530Z,41.28
2023-04-24T20:24:35.093Z,40.20
2023-04-24T20:27:03.897Z,40.55
2023-04-24T20:29:32.192Z,39.67
2023-04-24T20:32:00.723Z,40.31
2023-04-24T20:34:28.854Z,40.72
2023-04-24T20:37:00.299Z,41.07
2023-04-24T20:39:28.539Z,41.47
2023-04-24T20:41:58.285Z,41.04
2023-04-24T20:44:26.630Z,39.64
2023-04-24T20:46:54.905Z,40.43
2023-04-24T20:49:23.951Z,39.99
2023-04-24T20:51:52.086Z,40.72
2023-04-24T20:54:20.095Z,40.29
2023-04-24T20:56:48.629Z,39.30
2023-04-24T20:59:18.353Z,39.69
2023-04-24T21:01:48.621Z,38.87
2023-04-24T21:04:17.003Z,39.90
2023-04-24T21:06:45.556Z,39.67
2023-04-24T21:09:13.710Z,39.46
2023-04-24T21:11:42.116Z,40.32
2023-04-24T21:14:10.561Z,39.42
2023-04-24T21:16:40.017Z,39.99
2023-04-24T21:19:08.139Z,39.71
2023-04-24T21:21:36.107Z,39.21
2023-04-24T21:24:04.502Z,39.30
2023-04-24T21:26:32.547Z,39.87
2023-04-24T21:29:00.633Z,39.32
2023-04-24T21:31:28.832Z,40.58
2023-04-24T21:33:58.195Z,39.68
2023-04-24T21:36:26.865Z,39.64
2023-04-24T21:38:55.375Z,39.41
2023-04-24T21:41:24.695Z,39.29
2023-04-24T21:43:52.962Z,39.10
2023-04-24T21:46:21.276Z,38.52
2023-04-24T21:48:49.264Z,38.57
2023-04-24T21:51:20.527Z,38.77
2023-04-24T21:53:49.012Z,39.30
2023-04-24T21:56:17.622Z,38.77
2023-04-24T21:58:46.899Z,37.54
2023-04-24T22:01:23.494Z,39.31
2023-04-24T22:03:52.256Z,39.46
2023-04-24T22:06:21.903Z,39.29
2023-04-24T22:08:49.833Z,39.05
2023-04-24T22:11:26.628Z,40.72
2023-04-24T22:13:55.689Z,39.58
2023-04-24T22:16:25.079Z,39.35
2023-04-24T22:18:55.384Z,39.80
2023-04-24T22:21:24.870Z,39.86
2023-04-24T22:23:53.008Z,39.69
2023-04-24T22:26:21.194Z,39.67
2023-04-24T22:28:49.076Z,39.64
2023-04-24T22:31:17.315Z,39.79
2023-04-24T22:33:47.810Z,39.36
2023-04-24T22:36:16.242Z,38.53
2023-04-24T22:38:45.901Z,38.03
2023-04-24T22:41:14.075Z,38.95
2023-04-24T22:43:42.016Z,39.26
2023-04-24T22:46:10.223Z,39.05
2023-04-24T22:48:38.127Z,38.14
2023-04-24T22:51:06.619Z,38.68
2023-04-24T22:53:36.170Z,37.49
2023-04-24T22:56:06.398Z,36.83
2023-04-24T22:58:34.417Z,38.00
2023-04-24T23:01:02.348Z,37.79
2023-04-24T23:03:31.699Z,38.62
2023-04-24T23:05:59.723Z,37.17
2023-04-24T23:08:27.748Z,38.13
2023-04-24T23:10:55.602Z,38.68
2023-04-24T23:13:25.827Z,38.33
2023-04-24T23:15:54.825Z,39.24
2023-04-24T23:18:22.818Z,39.36
2023-04-24T23:20:51.342Z,38.88
2023-04-24T23:23:19.291Z,41.10
2023-04-24T23:25:47.297Z,39.41
2023-04-24T23:28:15.203Z,40.97
2023-04-24T23:30:44.408Z,39.82
2023-04-24T23:33:12.415Z,39.76
2023-04-24T23:35:40.631Z,40.23
2023-04-24T23:38:08.601Z,40.67
2023-04-24T23:40:36.620Z,40.28
2023-04-24T23:43:07.979Z,39.55
2023-04-24T23:45:37.034Z,38.99
2023-04-24T23:48:06.855Z,39.09
2023-04-24T23:50:34.874Z,38.94
2023-04-24T23:53:03.031Z,39.03
2023-04-24T23:55:31.349Z,40.14
2023-04-24T23:57:59.333Z,40.10
